Time;durP1;ratioP1;P1;durP2;ratioP2;P2;SDS_P1;SDS_P2;PMS_P1;PMS_P2;Temp;Humidity;BMP_temperature;BMP_pressure;BME280_temperature;BME280_humidity;BME280_pressure;Samples;Min_cycle;Max_cycle;Signal;HPM_P1;HPM_P2
2023/04/16 00:01:27;;;;;;;150.15;76.20;;;8.50;99.90;;;;;;5003272;28;20042;-78
2023/04/16 00:03:54;;;;;;;137.68;68.93;;;8.50;99.90;;;;;;4985185;28;20046;-78
2023/04/16 00:06:22;;;;;;;137.13;70.75;;;8.50;99.90;;;;;;4999275;28;20050;-78
2023/04/16 00:08:50;;;;;;;134.55;71.43;;;8.60;99.90;;;;;;5015803;28;20156;-77
2023/04/16 00:11:17;;;;;;;145.30;74.28;;;8.50;99.90;;;;;;5015027;28;20118;-78
2023/04/16 00:13:44;;;;;;;160.73;78.38;;;8.50;99.90;;;;;;4998076;28;20133;-77
2023/04/16 00:16:10;;;;;;;155.02;74.95;;;8.50;99.90;;;;;;4995329;28;20446;-78
2023/04/16 00:18:38;;;;;;;161.13;79.25;;;8.50;99.90;;;;;;4991631;28;20137;-79
2023/04/16 00:21:06;;;;;;;171.65;78.88;;;8.60;99.90;;;;;;4992303;28;20049;-77
2023/04/16 00:23:33;;;;;;;171.30;78.05;;;8.60;99.90;;;;;;4998109;28;20050;-79
2023/04/16 00:25:59;;;;;;;169.15;78.35;;;8.50;99.90;;;;;;4994290;28;20048;-78
2023/04/16 00:28:26;;;;;;;176.60;81.93;;;8.60;99.90;;;;;;4993524;28;20046;-78
2023/04/16 00:30:54;;;;;;;170.57;81.00;;;8.60;99.90;;;;;;5006523;28;20046;-77
2023/04/16 00:33:21;;;;;;;179.02;82.50;;;8.50;99.90;;;;;;5001311;28;20495;-78
2023/04/16 00:35:48;;;;;;;183.00;84.55;;;8.50;99.90;;;;;;4989881;28;20040;-78
2023/04/16 00:38:15;;;;;;;178.90;83.30;;;8.40;99.90;;;;;;4999367;28;20044;-78
2023/04/16 00:40:41;;;;;;;173.10;78.75;;;8.40;99.90;;;;;;5004192;28;20052;-78
2023/04/16 00:43:08;;;;;;;188.73;84.45;;;8.40;99.90;;;;;;5008386;28;20423;-78
2023/04/16 00:45:35;;;;;;;183.07;85.13;;;8.50;99.90;;;;;;4998920;28;20042;-77
2023/04/16 00:48:03;;;;;;;189.65;83.95;;;8.40;99.90;;;;;;4981822;28;20042;-78
2023/04/16 00:50:30;;;;;;;207.07;88.78;;;8.40;99.90;;;;;;4993295;28;20520;-78
2023/04/16 00:52:57;;;;;;;214.20;92.03;;;8.40;99.90;;;;;;5004712;28;20049;-78
2023/04/16 00:55:23;;;;;;;217.38;91.55;;;8.40;99.90;;;;;;5005163;28;20053;-77
2023/04/16 00:57:51;;;;;;;247.25;94.50;;;8.30;99.90;;;;;;5003872;28;20128;-76
2023/04/16 01:00:17;;;;;;;232.30;94.28;;;8.30;99.90;;;;;;5013950;28;20045;-78
2023/04/16 01:02:44;;;;;;;239.73;95.57;;;8.40;99.90;;;;;;4994293;28;20154;-79
2023/04/16 01:05:11;;;;;;;239.30;94.10;;;8.40;99.90;;;;;;5009960;28;20112;-78
2023/04/16 01:07:37;;;;;;;246.52;98.72;;;8.40;99.90;;;;;;5000586;28;20048;-78
2023/04/16 01:10:05;;;;;;;269.02;102.93;;;8.30;99.90;;;;;;4995623;28;20096;-78
2023/04/16 01:12:31;;;;;;;272.77;102.15;;;8.40;99.90;;;;;;5019853;28;20144;-79
2023/04/16 01:14:58;;;;;;;246.82;97.55;;;8.40;99.90;;;;;;4985671;28;20069;-76
2023/04/16 01:17:25;;;;;;;224.00;94.03;;;8.40;99.90;;;;;;5016076;28;20305;-78
2023/04/16 01:19:51;;;;;;;238.90;99.13;;;8.30;99.90;;;;;;4993597;28;20137;-77
2023/04/16 01:22:18;;;;;;;262.23;101.15;;;8.30;99.90;;;;;;5004532;28;20077;-76
2023/04/16 01:24:45;;;;;;;242.50;97.80;;;8.30;99.90;;;;;;5005503;28;20045;-78
2023/04/16 01:27:11;;;;;;;228.88;95.97;;;8.30;99.90;;;;;;5003847;28;20050;-78
2023/04/16 01:29:38;;;;;;;229.82;93.90;;;8.30;99.90;;;;;;5011803;28;20065;-77
2023/04/16 01:32:06;;;;;;;212.93;92.28;;;8.30;99.90;;;;;;4979497;28;20038;-76
2023/04/16 01:34:35;;;;;;;220.88;95.15;;;8.30;99.90;;;;;;5008104;28;20045;-79
2023/04/16 01:37:02;;;;;;;211.65;93.00;;;8.30;99.90;;;;;;4981220;28;20128;-76
2023/04/16 01:39:29;;;;;;;215.15;96.10;;;8.40;99.90;;;;;;4989536;28;20245;-78
2023/04/16 01:41:56;;;;;;;198.13;90.57;;;8.40;99.90;;;;;;4991958;28;20045;-75
2023/04/16 01:44:24;;;;;;;195.93;91.90;;;8.40;99.90;;;;;;5015645;28;20073;-77
2023/04/16 01:46:50;;;;;;;203.07;93.30;;;8.30;99.90;;;;;;4994575;28;20038;-78
2023/04/16 01:49:17;;;;;;;188.38;87.07;;;8.40;99.90;;;;;;4990262;28;20144;-79
2023/04/16 01:51:44;;;;;;;185.30;83.78;;;8.30;99.90;;;;;;4983134;28;20774;-78
2023/04/16 01:54:11;;;;;;;194.13;88.15;;;8.30;99.90;;;;;;4990047;28;20050;-78
2023/04/16 01:56:38;;;;;;;191.73;89.07;;;8.30;99.90;;;;;;4999242;28;20038;-79
2023/04/16 01:59:05;;;;;;;197.77;89.75;;;8.30;99.90;;;;;;4984257;28;20143;-77
2023/04/16 02:01:37;;;;;;;196.43;93.07;;;8.20;99.90;;;;;;4988588;28;20057;-78
2023/04/16 02:04:04;;;;;;;212.88;94.63;;;8.20;99.90;;;;;;5003342;28;20157;-77
2023/04/16 02:06:31;;;;;;;202.95;90.45;;;8.30;99.90;;;;;;5007182;28;20042;-77
2023/04/16 02:08:57;;;;;;;208.88;92.78;;;8.20;99.90;;;;;;4992460;28;20057;-76
2023/04/16 02:11:25;;;;;;;205.63;91.68;;;8.20;99.90;;;;;;5012128;28;20041;-78
2023/04/16 02:13:52;;;;;;;178.68;84.28;;;8.30;99.90;;;;;;4981938;28;20432;-77
2023/04/16 02:16:19;;;;;;;172.13;84.20;;;8.20;99.90;;;;;;5009095;28;20088;-78
2023/04/16 02:18:52;;;;;;;164.88;81.45;;;8.10;99.90;;;;;;4983693;28;20045;-78
2023/04/16 02:21:20;;;;;;;168.85;82.43;;;8.20;99.90;;;;;;4995580;28;20176;-78
2023/04/16 02:23:50;;;;;;;174.98;82.47;;;8.20;99.90;;;;;;5016576;28;20049;-76
2023/04/16 02:26:22;;;;;;;153.40;77.10;;;8.20;99.90;;;;;;5032510;28;20053;-78
2023/04/16 02:28:49;;;;;;;165.30;83.93;;;8.20;99.90;;;;;;4985924;28;20060;-76
2023/04/16 02:31:18;;;;;;;158.77;78.25;;;8.20;99.90;;;;;;5016232;28;20977;-78
2023/04/16 02:33:46;;;;;;;162.13;81.03;;;8.20;99.90;;;;;;5020150;28;20041;-78
2023/04/16 02:36:13;;;;;;;169.93;85.20;;;8.20;99.90;;;;;;5008761;28;20050;-78
2023/04/16 02:38:40;;;;;;;166.75;82.28;;;8.20;99.90;;;;;;4987194;28;20617;-78
2023/04/16 02:41:07;;;;;;;157.25;81.10;;;8.30;99.90;;;;;;4993826;28;20052;-76
2023/04/16 02:43:34;;;;;;;169.10;84.20;;;8.20;99.90;;;;;;5013709;28;20046;-77
2023/04/16 02:46:01;;;;;;;177.32;85.70;;;8.20;99.90;;;;;;5015898;28;20549;-78
2023/04/16 02:48:28;;;;;;;175.50;85.07;;;8.20;99.90;;;;;;4995601;28;20042;-77
2023/04/16 02:50:54;;;;;;;182.55;83.95;;;8.20;99.90;;;;;;4999607;28;20128;-78
2023/04/16 02:53:21;;;;;;;177.25;85.28;;;8.10;99.90;;;;;;5012927;28;20427;-76
2023/04/16 02:55:54;;;;;;;191.63;89.68;;;8.10;99.90;;;;;;4989028;28;20058;-76
2023/04/16 02:58:24;;;;;;;187.45;85.38;;;8.10;99.90;;;;;;4995751;28;20698;-78
2023/04/16 03:00:52;;;;;;;198.18;86.88;;;8.10;99.90;;;;;;5011720;28;20121;-79
2023/04/16 03:03:20;;;;;;;207.00;91.88;;;8.10;99.90;;;;;;4991183;28;20046;-79
2023/04/16 03:05:47;;;;;;;209.60;95.15;;;8.10;99.90;;;;;;5005887;28;20566;-78
2023/04/16 03:08:15;;;;;;;221.57;94.18;;;8.10;99.90;;;;;;5012256;28;20053;-79
2023/04/16 03:10:42;;;;;;;213.02;93.63;;;8.10;99.90;;;;;;4998890;28;20053;-77
2023/04/16 03:13:09;;;;;;;194.25;86.25;;;8.10;99.90;;;;;;4980051;28;20046;-78
2023/04/16 03:15:35;;;;;;;198.40;91.55;;;8.10;99.90;;;;;;4986250;28;20046;-79
2023/04/16 03:18:02;;;;;;;199.98;91.95;;;8.10;99.90;;;;;;4984925;28;20053;-76
2023/04/16 03:20:29;;;;;;;188.80;89.35;;;8.10;99.90;;;;;;5008813;28;20600;-79
2023/04/16 03:22:56;;;;;;;200.52;93.15;;;8.10;99.90;;;;;;4992976;28;20560;-79
2023/04/16 03:25:22;;;;;;;190.18;89.78;;;8.10;99.90;;;;;;5012105;28;20060;-77
2023/04/16 03:27:50;;;;;;;176.57;83.13;;;8.10;99.90;;;;;;4982823;28;20029;-78
2023/04/16 03:30:17;;;;;;;177.07;86.55;;;8.10;99.90;;;;;;4977921;28;20155;-78
2023/04/16 03:32:43;;;;;;;174.70;84.30;;;8.20;99.90;;;;;;4985104;28;20049;-79
2023/04/16 03:35:11;;;;;;;176.15;84.57;;;8.10;99.90;;;;;;4984024;28;20045;-77
2023/04/16 03:37:38;;;;;;;165.23;82.38;;;8.10;99.90;;;;;;5013529;28;20092;-79
2023/04/16 03:40:06;;;;;;;178.15;85.18;;;8.10;99.90;;;;;;4996839;28;20442;-78
2023/04/16 03:42:33;;;;;;;174.55;80.88;;;8.10;99.90;;;;;;4982186;28;20073;-78
2023/04/16 03:45:00;;;;;;;182.38;84.30;;;8.10;99.90;;;;;;4989173;28;20039;-77
2023/04/16 03:47:27;;;;;;;181.10;83.38;;;8.10;99.90;;;;;;4984671;28;20057;-78
2023/04/16 03:49:57;;;;;;;192.40;87.70;;;8.10;99.90;;;;;;5006561;28;20050;-78
2023/04/16 03:52:26;;;;;;;191.57;87.20;;;8.10;99.90;;;;;;5004170;28;20514;-78
2023/04/16 03:54:54;;;;;;;180.93;85.13;;;8.10;99.90;;;;;;4997285;28;20679;-78
2023/04/16 03:57:25;;;;;;;185.07;85.28;;;8.20;99.90;;;;;;5000275;28;20418;-77
2023/04/16 03:59:55;;;;;;;185.15;86.15;;;8.10;99.90;;;;;;4996909;28;20050;-78
2023/04/16 04:02:22;;;;;;;182.32;84.10;;;8.10;99.90;;;;;;5013745;28;20069;-78
2023/04/16 04:04:49;;;;;;;209.38;92.00;;;8.10;99.90;;;;;;4997289;28;20049;-77
2023/04/16 04:07:16;;;;;;;195.38;88.70;;;8.10;99.90;;;;;;4993408;28;20045;-78
2023/04/16 04:09:43;;;;;;;197.77;91.43;;;8.00;99.90;;;;;;5001679;28;20056;-77
2023/04/16 04:12:10;;;;;;;193.35;85.95;;;7.90;99.90;;;;;;4997433;28;20050;-77
2023/04/16 04:14:39;;;;;;;185.90;85.53;;;8.00;99.90;;;;;;5013496;28;20042;-76
2023/04/16 04:17:07;;;;;;;187.85;89.07;;;8.00;99.90;;;;;;4985106;28;20125;-75
2023/04/16 04:19:34;;;;;;;180.27;82.53;;;8.00;99.90;;;;;;4981018;28;20038;-78
2023/04/16 04:22:02;;;;;;;189.38;87.50;;;8.00;99.90;;;;;;5010789;28;20105;-76
2023/04/16 04:24:29;;;;;;;162.35;82.20;;;8.00;99.90;;;;;;4994962;28;20030;-79
2023/04/16 04:26:57;;;;;;;181.93;86.88;;;7.90;99.90;;;;;;4980571;28;20506;-78
2023/04/16 04:29:23;;;;;;;195.88;88.97;;;7.90;99.90;;;;;;4982989;28;20042;-76
2023/04/16 04:31:50;;;;;;;180.43;90.57;;;7.90;99.90;;;;;;4997090;28;20061;-79
2023/04/16 04:34:18;;;;;;;162.65;81.30;;;7.90;99.90;;;;;;4997294;28;20046;-76
2023/04/16 04:36:44;;;;;;;154.98;76.45;;;7.90;99.90;;;;;;4994949;28;20546;-78
2023/04/16 04:39:12;;;;;;;172.60;82.75;;;7.90;99.90;;;;;;5011567;28;20117;-78
2023/04/16 04:41:42;;;;;;;171.57;82.88;;;7.90;99.90;;;;;;5000799;28;20676;-78
2023/04/16 04:44:08;;;;;;;158.27;81.82;;;7.90;99.90;;;;;;5013925;28;20616;-77
2023/04/16 04:46:35;;;;;;;151.60;76.38;;;7.90;99.90;;;;;;5012891;28;20038;-79
2023/04/16 04:49:02;;;;;;;140.60;74.43;;;8.00;99.90;;;;;;4977673;28;20585;-76
2023/04/16 04:51:30;;;;;;;136.93;69.63;;;8.00;99.90;;;;;;4983401;28;20046;-77
2023/04/16 04:53:57;;;;;;;126.72;70.80;;;7.90;99.90;;;;;;4991028;28;20061;-78
2023/04/16 04:56:24;;;;;;;125.53;67.00;;;7.80;99.90;;;;;;4995310;28;20128;-77
2023/04/16 04:58:51;;;;;;;122.72;69.70;;;7.80;99.90;;;;;;4987240;28;20532;-77
2023/04/16 05:01:19;;;;;;;138.48;73.03;;;7.80;99.90;;;;;;4982226;28;20579;-79
2023/04/16 05:03:45;;;;;;;125.43;67.05;;;7.90;99.90;;;;;;5017375;28;20559;-79
2023/04/16 05:06:12;;;;;;;126.43;68.45;;;7.90;99.90;;;;;;4995951;28;20150;-77
2023/04/16 05:08:39;;;;;;;125.22;68.78;;;7.80;99.90;;;;;;4981448;28;20054;-78
2023/04/16 05:11:06;;;;;;;122.45;64.25;;;7.80;99.90;;;;;;5000438;28;20052;-78
2023/04/16 05:13:32;;;;;;;122.72;67.70;;;7.80;99.90;;;;;;5005360;28;20686;-77
2023/04/16 05:15:59;;;;;;;120.00;66.70;;;7.70;99.90;;;;;;4998549;28;20133;-78
2023/04/16 05:18:26;;;;;;;116.65;64.25;;;7.70;99.90;;;;;;5015044;28;20042;-79
2023/04/16 05:20:53;;;;;;;120.72;66.38;;;7.60;99.90;;;;;;5000861;28;20045;-78
2023/04/16 05:23:20;;;;;;;118.80;65.43;;;7.60;99.90;;;;;;5005245;28;20632;-78
2023/04/16 05:25:46;;;;;;;120.10;65.95;;;7.60;99.90;;;;;;4990413;28;20038;-78
2023/04/16 05:28:13;;;;;;;114.03;65.13;;;7.60;99.90;;;;;;4986510;28;20034;-77
2023/04/16 05:30:39;;;;;;;128.95;70.22;;;7.60;99.90;;;;;;5000438;28;20045;-80
2023/04/16 05:33:06;;;;;;;131.07;71.80;;;7.60;99.90;;;;;;4999446;28;20100;-77
2023/04/16 05:35:33;;;;;;;129.05;70.32;;;7.60;99.90;;;;;;4998159;28;20057;-76
2023/04/16 05:38:01;;;;;;;124.10;66.95;;;7.60;99.90;;;;;;5000314;28;20061;-78
2023/04/16 05:40:28;;;;;;;119.63;65.50;;;7.60;99.90;;;;;;5014428;28;20052;-79
2023/04/16 05:42:54;;;;;;;123.15;67.35;;;7.60;99.90;;;;;;4978057;28;20043;-76
2023/04/16 05:45:21;;;;;;;123.80;65.00;;;7.50;99.90;;;;;;5003781;28;20038;-78
2023/04/16 05:47:48;;;;;;;122.18;67.38;;;7.50;99.90;;;;;;5001323;28;20048;-77
2023/04/16 05:50:14;;;;;;;121.35;66.20;;;7.40;99.90;;;;;;5008259;28;20046;-77
2023/04/16 05:52:41;;;;;;;130.10;68.78;;;7.40;99.90;;;;;;5017111;28;20049;-79
2023/04/16 05:55:08;;;;;;;131.07;69.63;;;7.40;99.90;;;;;;5001094;28;20046;-78
2023/04/16 05:57:35;;;;;;;138.30;68.75;;;7.50;99.90;;;;;;5001322;28;20165;-76
2023/04/16 06:00:02;;;;;;;141.88;70.50;;;7.50;99.90;;;;;;5006738;28;20078;-77
2023/04/16 06:02:38;;;;;;;141.00;69.70;;;7.40;99.90;;;;;;5007758;28;20042;-77
2023/04/16 06:05:05;;;;;;;148.88;74.13;;;7.40;99.90;;;;;;4995746;28;20137;-78
2023/04/16 06:07:31;;;;;;;142.35;67.90;;;7.40;99.90;;;;;;5016728;28;20461;-80
2023/04/16 06:09:58;;;;;;;154.55;76.93;;;7.40;99.90;;;;;;5011025;28;20137;-77
2023/04/16 06:12:25;;;;;;;162.45;79.95;;;7.40;99.90;;;;;;4996468;28;20030;-78
2023/04/16 06:14:51;;;;;;;170.25;82.15;;;7.40;99.90;;;;;;4990942;28;20511;-78
2023/04/16 06:17:18;;;;;;;157.93;79.35;;;7.40;99.90;;;;;;4997655;28;20041;-76
2023/04/16 06:19:45;;;;;;;174.27;81.38;;;7.50;99.90;;;;;;5017124;28;20105;-80
2023/04/16 06:22:11;;;;;;;153.82;77.50;;;7.50;99.90;;;;;;4998613;28;20072;-81
2023/04/16 06:24:38;;;;;;;148.13;73.80;;;7.60;99.90;;;;;;4995635;28;20038;-78
2023/04/16 06:27:05;;;;;;;133.88;68.35;;;7.50;99.90;;;;;;4999356;28;20052;-78
2023/04/16 06:29:31;;;;;;;129.35;66.85;;;7.40;99.90;;;;;;5010426;28;20081;-79
2023/04/16 06:32:07;;;;;;;;;;;7.40;99.90;;;;;;5000545;28;20321;-78
2023/04/16 06:34:34;;;;;;;124.00;65.97;;;7.30;99.90;;;;;;4998898;28;19939;-79
2023/04/16 06:37:00;;;;;;;133.05;68.28;;;7.30;99.90;;;;;;4989695;28;20037;-76
2023/04/16 06:39:27;;;;;;;124.68;67.20;;;7.40;99.90;;;;;;5015703;28;20096;-78
2023/04/16 06:41:54;;;;;;;128.68;66.80;;;7.30;99.90;;;;;;5021546;28;20293;-78
2023/04/16 06:44:21;;;;;;;138.25;70.30;;;7.30;99.90;;;;;;4990318;28;20050;-81
2023/04/16 06:46:49;;;;;;;151.68;73.72;;;7.40;99.90;;;;;;5005565;28;20061;-77
2023/04/16 06:49:15;;;;;;;138.02;72.03;;;7.40;99.90;;;;;;5004559;28;20041;-78
2023/04/16 06:51:42;;;;;;;139.52;71.25;;;7.40;99.90;;;;;;5005780;28;20113;-79
2023/04/16 06:54:09;;;;;;;143.73;72.78;;;7.40;99.90;;;;;;4983257;28;20065;-77
2023/04/16 06:56:36;;;;;;;144.25;71.55;;;7.40;99.90;;;;;;5015847;28;20054;-79
2023/04/16 06:59:03;;;;;;;137.18;67.15;;;7.40;99.90;;;;;;5001796;28;20057;-78
2023/04/16 07:01:30;;;;;;;142.05;68.72;;;7.20;99.90;;;;;;4999841;28;20451;-79
2023/04/16 07:03:57;;;;;;;159.52;70.43;;;7.10;99.90;;;;;;5016181;28;20045;-79
2023/04/16 07:06:25;;;;;;;156.63;71.55;;;7.00;99.90;;;;;;4999143;28;20068;-79
2023/04/16 07:08:52;;;;;;;158.40;71.38;;;7.00;99.90;;;;;;5001069;28;20046;-78
2023/04/16 07:11:19;;;;;;;154.88;71.80;;;6.90;99.90;;;;;;4981915;28;20782;-79
2023/04/16 07:13:46;;;;;;;151.20;72.07;;;7.00;99.90;;;;;;4990538;28;20060;-79
2023/04/16 07:16:13;;;;;;;163.18;76.25;;;7.10;99.90;;;;;;5002047;28;20046;-80
2023/04/16 07:18:40;;;;;;;157.55;74.95;;;7.20;99.90;;;;;;5002790;28;20046;-79
2023/04/16 07:21:06;;;;;;;165.30;76.03;;;7.10;99.90;;;;;;5001154;28;20042;-80
2023/04/16 07:23:33;;;;;;;157.05;74.13;;;7.10;99.90;;;;;;5014628;28;20046;-78
2023/04/16 07:26:00;;;;;;;160.73;75.40;;;7.00;99.90;;;;;;5013825;28;20050;-78
2023/04/16 07:28:26;;;;;;;141.60;69.93;;;7.10;99.90;;;;;;5015285;28;20119;-79
2023/04/16 07:30:53;;;;;;;133.23;68.63;;;7.20;99.90;;;;;;5009646;28;20458;-79
2023/04/16 07:33:20;;;;;;;141.65;70.68;;;7.20;99.90;;;;;;5011630;28;20478;-77
2023/04/16 07:35:46;;;;;;;132.13;67.45;;;7.20;99.90;;;;;;4996587;28;20133;-77
2023/04/16 07:38:15;;;;;;;137.68;66.13;;;7.20;99.90;;;;;;5012791;28;20042;-77
2023/04/16 07:40:41;;;;;;;137.02;68.90;;;7.30;99.90;;;;;;4988433;28;20041;-78
2023/04/16 07:43:09;;;;;;;132.18;66.57;;;7.30;99.90;;;;;;5000387;28;20050;-77
2023/04/16 07:45:35;;;;;;;133.05;66.93;;;7.40;99.90;;;;;;4983588;28;20057;-78
2023/04/16 07:48:02;;;;;;;132.55;65.65;;;7.30;99.90;;;;;;5000649;28;20077;-78
2023/04/16 07:50:29;;;;;;;119.28;62.75;;;7.50;99.90;;;;;;4997430;28;20120;-78
2023/04/16 07:52:55;;;;;;;114.00;63.13;;;7.40;99.90;;;;;;4980085;28;20053;-77
2023/04/16 07:55:23;;;;;;;121.18;59.53;;;7.30;99.90;;;;;;5015583;28;20048;-78
2023/04/16 07:57:50;;;;;;;109.13;56.10;;;7.40;99.90;;;;;;5010227;28;20036;-78
2023/04/16 08:00:17;;;;;;;107.25;58.35;;;7.30;99.90;;;;;;5016823;28;20559;-78
2023/04/16 08:02:44;;;;;;;96.43;53.00;;;7.30;99.90;;;;;;4994766;28;20535;-77
2023/04/16 08:05:11;;;;;;;102.40;53.95;;;7.40;99.90;;;;;;5013353;28;20436;-77
2023/04/16 08:07:38;;;;;;;91.95;50.88;;;7.40;99.90;;;;;;5001428;28;20049;-81
2023/04/16 08:10:05;;;;;;;86.50;49.25;;;7.50;99.90;;;;;;4994241;28;20042;-80
2023/04/16 08:12:32;;;;;;;79.28;44.58;;;7.60;99.90;;;;;;4983731;28;20058;-80
2023/04/16 08:14:58;;;;;;;77.00;43.05;;;7.70;99.90;;;;;;5013567;28;20050;-77
2023/04/16 08:17:27;;;;;;;65.90;40.85;;;7.80;99.90;;;;;;4986911;28;20737;-78
2023/04/16 08:19:53;;;;;;;68.60;38.85;;;7.90;99.90;;;;;;4987838;28;20672;-78
2023/04/16 08:22:21;;;;;;;64.85;39.95;;;8.10;99.90;;;;;;5011767;28;20045;-78
2023/04/16 08:24:48;;;;;;;68.88;40.80;;;8.10;99.90;;;;;;4996394;28;20103;-78
2023/04/16 08:27:15;;;;;;;59.78;37.75;;;8.30;99.90;;;;;;4988414;28;20057;-78
2023/04/16 08:29:46;;;;;;;58.85;36.20;;;8.30;99.90;;;;;;4994324;28;20136;-78
2023/04/16 08:32:13;;;;;;;59.67;38.17;;;8.50;99.90;;;;;;5010829;28;20049;-78
2023/04/16 08:34:41;;;;;;;51.95;31.65;;;8.50;99.90;;;;;;4996681;28;20041;-78
2023/04/16 08:37:08;;;;;;;60.42;38.85;;;8.60;99.90;;;;;;4996191;28;20648;-77
2023/04/16 08:39:34;;;;;;;49.15;33.65;;;8.60;99.90;;;;;;5000359;28;20495;-77
2023/04/16 08:42:04;;;;;;;49.65;32.97;;;8.70;99.90;;;;;;5009608;28;20038;-78
2023/04/16 08:44:34;;;;;;;49.30;34.13;;;8.80;99.90;;;;;;5003581;28;20137;-77
2023/04/16 08:47:01;;;;;;;52.45;32.58;;;9.10;99.90;;;;;;4984669;28;20050;-78
2023/04/16 08:49:28;;;;;;;50.70;35.00;;;8.90;99.90;;;;;;4995749;28;20093;-78
2023/04/16 08:51:55;;;;;;;52.35;33.85;;;8.70;99.90;;;;;;4994987;28;20045;-78
2023/04/16 08:54:42;;;;;;;47.25;32.13;;;8.80;99.90;;;;;;5002891;28;20645;-77
2023/04/16 08:57:11;;;;;;;49.92;33.72;;;8.70;99.90;;;;;;4992831;28;20042;-77
2023/04/16 08:59:38;;;;;;;49.60;34.33;;;8.70;99.90;;;;;;4999223;28;20137;-77
2023/04/16 09:02:06;;;;;;;47.90;33.63;;;8.80;99.90;;;;;;5007502;28;20137;-77
2023/04/16 09:04:33;;;;;;;46.97;33.08;;;8.70;99.90;;;;;;5001720;28;20169;-77
2023/04/16 09:07:03;;;;;;;47.33;34.33;;;9.00;99.90;;;;;;5012587;28;20076;-77
2023/04/16 09:09:30;;;;;;;46.83;34.95;;;9.10;99.90;;;;;;4988995;28;20226;-77
2023/04/16 09:12:00;;;;;;;44.78;32.95;;;9.10;99.90;;;;;;4994326;28;20122;-77
2023/04/16 09:14:26;;;;;;;48.58;35.33;;;9.20;99.90;;;;;;4995436;28;20045;-77
2023/04/16 09:16:54;;;;;;;45.90;36.60;;;9.30;99.90;;;;;;4994262;28;20256;-77
2023/04/16 09:19:22;;;;;;;44.70;33.70;;;9.30;99.90;;;;;;4998650;28;20038;-77
2023/04/16 09:21:49;;;;;;;40.08;30.45;;;9.30;99.90;;;;;;5009234;28;20145;-77
2023/04/16 09:24:16;;;;;;;43.17;32.60;;;9.30;99.90;;;;;;4995408;28;20697;-77
2023/04/16 09:26:43;;;;;;;43.58;34.13;;;9.20;99.90;;;;;;4995235;28;20543;-77
2023/04/16 09:29:09;;;;;;;42.65;33.72;;;9.30;99.90;;;;;;5007061;28;20518;-77
2023/04/16 09:31:37;;;;;;;46.17;34.20;;;9.30;99.90;;;;;;4997049;28;20077;-76
2023/04/16 09:34:06;;;;;;;43.08;36.58;;;9.50;99.90;;;;;;4996013;28;20462;-79
2023/04/16 09:36:35;;;;;;;47.65;36.42;;;9.70;99.90;;;;;;5002938;28;20069;-76
2023/04/16 09:39:02;;;;;;;41.63;34.35;;;9.70;99.90;;;;;;4984894;28;20033;-76
2023/04/16 09:41:31;;;;;;;44.70;35.42;;;9.80;99.90;;;;;;4989924;28;20132;-79
2023/04/16 09:44:03;;;;;;;49.85;36.83;;;9.80;99.90;;;;;;5014392;28;20050;-77
2023/04/16 09:46:33;;;;;;;44.28;36.17;;;9.90;99.90;;;;;;4994972;28;20042;-76
2023/04/16 09:49:12;;;;;;;46.13;36.75;;;9.90;99.90;;;;;;5002125;28;20042;-75
2023/04/16 09:51:43;;;;;;;43.75;36.40;;;10.10;99.90;;;;;;4997264;28;20041;-76
2023/04/16 09:54:10;;;;;;;45.63;39.13;;;10.30;99.90;;;;;;5000048;28;20099;-76
2023/04/16 09:56:45;;;;;;;48.22;36.92;;;10.30;99.90;;;;;;4996231;28;20064;-75
2023/04/16 09:59:22;;;;;;;43.97;37.08;;;10.10;99.90;;;;;;5005216;28;20045;-76
2023/04/16 10:01:51;;;;;;;47.90;36.95;;;9.90;99.90;;;;;;5001952;28;20061;-75
2023/04/16 10:04:23;;;;;;;47.22;37.75;;;9.80;99.90;;;;;;4991160;28;20061;-75
2023/04/16 10:07:03;;;;;;;47.20;37.08;;;9.90;99.90;;;;;;5000030;28;20578;-76
2023/04/16 10:09:37;;;;;;;45.05;36.63;;;10.30;99.90;;;;;;4992934;28;20091;-76
2023/04/16 10:12:05;;;;;;;46.60;36.95;;;10.30;99.90;;;;;;5015253;28;20061;-74
2023/04/16 10:14:35;;;;;;;45.67;36.50;;;10.20;99.90;;;;;;5002370;28;20051;-76
2023/04/16 10:17:03;;;;;;;47.83;38.25;;;10.20;99.90;;;;;;4998307;28;20042;-74
2023/04/16 10:19:31;;;;;;;43.65;37.92;;;10.30;99.90;;;;;;4996403;28;20037;-76
2023/04/16 10:21:58;;;;;;;43.70;38.38;;;10.40;99.90;;;;;;4999071;28;20046;-75
2023/04/16 10:24:25;;;;;;;44.28;39.08;;;10.40;99.90;;;;;;5015911;28;20064;-74
2023/04/16 10:26:52;;;;;;;43.45;38.72;;;10.10;99.90;;;;;;4975771;28;20053;-78
2023/04/16 10:29:22;;;;;;;54.05;43.08;;;9.90;99.90;;;;;;4997798;28;20057;-78
2023/04/16 10:31:49;;;;;;;52.55;40.72;;;9.80;99.90;;;;;;4996230;28;20045;-74
2023/04/16 10:34:17;;;;;;;51.78;40.78;;;9.80;99.90;;;;;;5006815;28;20054;-76
2023/04/16 10:36:48;;;;;;;49.58;40.65;;;9.80;99.90;;;;;;4993935;28;20535;-74
2023/04/16 10:39:21;;;;;;;55.13;41.70;;;10.00;99.90;;;;;;4996463;28;20050;-75
2023/04/16 10:41:48;;;;;;;53.25;43.92;;;10.10;99.90;;;;;;4980576;28;20038;-74
2023/04/16 10:44:18;;;;;;;47.67;41.90;;;10.00;99.90;;;;;;4975541;28;20037;-74
2023/04/16 10:46:50;;;;;;;54.20;42.88;;;10.00;99.90;;;;;;5006980;28;20068;-75
2023/04/16 10:49:23;;;;;;;46.00;39.50;;;10.20;99.90;;;;;;4996295;28;20048;-75
2023/04/16 10:52:06;;;;;;;51.88;39.42;;;10.20;99.90;;;;;;4995920;28;20506;-74
2023/04/16 10:54:34;;;;;;;50.92;41.60;;;10.10;99.90;;;;;;4994255;28;20696;-76
2023/04/16 10:57:07;;;;;;;52.08;42.03;;;10.10;99.90;;;;;;4995931;28;20046;-75
2023/04/16 10:59:36;;;;;;;45.58;40.03;;;10.10;99.90;;;;;;5009572;28;20084;-74
2023/04/16 11:02:10;;;;;;;50.80;44.00;;;10.30;99.90;;;;;;4999733;28;20279;-75
2023/04/16 11:04:39;;;;;;;44.95;40.20;;;10.40;99.90;;;;;;4992299;28;20049;-76
2023/04/16 11:07:18;;;;;;;43.55;39.08;;;10.40;99.90;;;;;;5005882;28;20140;-73
2023/04/16 11:09:52;;;;;;;46.75;41.67;;;10.30;99.90;;;;;;5007251;28;20432;-75
2023/04/16 11:12:21;;;;;;;48.78;43.55;;;10.20;99.90;;;;;;4995588;28;20052;-74
2023/04/16 11:14:48;;;;;;;48.53;43.00;;;10.10;99.90;;;;;;4994918;28;20071;-73
2023/04/16 11:17:16;;;;;;;47.10;41.95;;;10.10;99.90;;;;;;4996023;28;20092;-75
2023/04/16 11:19:43;;;;;;;47.78;42.80;;;10.20;99.90;;;;;;4995640;28;20045;-74
2023/04/16 11:22:16;;;;;;;45.60;40.47;;;10.40;99.90;;;;;;4990860;28;20042;-76
2023/04/16 11:24:45;;;;;;;45.92;41.00;;;10.30;99.90;;;;;;4994248;28;20492;-74
2023/04/16 11:27:15;;;;;;;53.10;41.58;;;10.20;99.90;;;;;;4997007;28;20076;-74
2023/04/16 11:29:42;;;;;;;47.97;41.15;;;10.30;99.90;;;;;;4993628;28;20056;-75
2023/04/16 11:32:20;;;;;;;46.92;42.15;;;10.20;99.90;;;;;;4976461;28;20050;-73
2023/04/16 11:34:47;;;;;;;47.65;42.63;;;10.20;99.90;;;;;;5008837;28;20084;-74
2023/04/16 11:37:13;;;;;;;46.28;41.55;;;10.30;99.90;;;;;;4999125;28;20041;-76
2023/04/16 11:39:48;;;;;;;44.63;39.72;;;10.30;99.90;;;;;;4991063;28;20038;-74
2023/04/16 11:42:21;;;;;;;46.03;41.15;;;10.20;99.90;;;;;;4994444;28;20296;-74
2023/04/16 11:44:55;;;;;;;45.55;40.67;;;10.20;99.90;;;;;;5008860;28;20049;-75
2023/04/16 11:47:23;;;;;;;44.75;39.90;;;10.20;99.90;;;;;;4995641;28;20140;-73
2023/04/16 11:49:50;;;;;;;43.90;39.58;;;10.10;99.90;;;;;;4993126;28;20088;-76
2023/04/16 11:52:31;;;;;;;44.70;39.97;;;10.10;99.90;;;;;;5011893;28;20150;-75
2023/04/16 11:54:58;;;;;;;45.25;40.70;;;10.20;99.90;;;;;;4991460;28;20659;-75
2023/04/16 11:57:30;;;;;;;44.70;40.22;;;10.20;99.90;;;;;;4994414;28;20140;-75
2023/04/16 11:59:58;;;;;;;44.50;40.00;;;10.20;99.90;;;;;;4995772;28;20050;-75
2023/04/16 12:02:39;;;;;;;43.95;39.65;;;10.20;99.90;;;;;;5006737;28;20053;-73
2023/04/16 12:05:27;;;;;;;43.42;38.65;;;10.00;99.90;;;;;;5006931;28;20839;-75
2023/04/16 12:07:54;;;;;;;41.50;36.70;;;10.10;99.90;;;;;;4990201;28;20256;-74
2023/04/16 12:10:21;;;;;;;42.50;37.58;;;10.00;99.90;;;;;;4994054;28;20045;-74
2023/04/16 12:12:48;;;;;;;43.67;39.03;;;10.10;99.90;;;;;;4995745;28;20550;-74
2023/04/16 12:15:15;;;;;;;43.72;39.08;;;10.10;99.90;;;;;;5005510;28;20129;-73
2023/04/16 12:17:41;;;;;;;45.00;40.28;;;10.10;99.90;;;;;;5009528;28;20110;-76
2023/04/16 12:20:13;;;;;;;44.63;39.83;;;10.10;99.90;;;;;;4991497;28;20057;-76
2023/04/16 12:22:46;;;;;;;43.33;38.90;;;10.20;99.90;;;;;;5013782;28;20749;-75
2023/04/16 12:25:15;;;;;;;46.03;41.33;;;10.30;99.90;;;;;;4996579;28;20075;-74
2023/04/16 12:27:54;;;;;;;44.83;40.25;;;10.30;99.90;;;;;;4987265;28;20061;-73
2023/04/16 12:30:23;;;;;;;43.78;39.13;;;10.30;99.90;;;;;;4989905;28;20606;-73
2023/04/16 12:32:52;;;;;;;44.65;40.08;;;10.10;99.90;;;;;;4967835;28;20633;-74